Time;durP1;ratioP1;P1;durP2;ratioP2;P2;SDS_P1;SDS_P2;PMS_P1;PMS_P2;Temp;Humidity;BMP_temperature;BMP_pressure;BME280_temperature;BME280_humidity;BME280_pressure;Samples;Min_cycle;Max_cycle;Signal;HPM_P1;HPM_P2
2021/03/05 00:00:25;;;;;;;8.40;6.83;;;9.50;99.90;;;;;;5112282;27;20206;-53
2021/03/05 00:02:52;;;;;;;7.30;6.50;;;9.60;99.90;;;;;;5113650;27;20175;-52
2021/03/05 00:05:17;;;;;;;10.38;8.10;;;9.70;99.90;;;;;;5113716;27;20227;-52
2021/03/05 00:07:43;;;;;;;10.10;8.67;;;9.70;99.90;;;;;;5114155;27;20210;-53
2021/03/05 00:10:11;;;;;;;10.80;9.37;;;9.50;99.90;;;;;;5124140;27;20443;-54
2021/03/05 00:12:37;;;;;;;11.57;10.35;;;9.40;99.90;;;;;;5114275;27;20179;-53
2021/03/05 00:15:05;;;;;;;10.93;9.70;;;9.30;99.90;;;;;;5113726;27;20297;-53
2021/03/05 00:17:30;;;;;;;10.20;9.20;;;8.70;99.90;;;;;;5113367;27;20435;-52
2021/03/05 00:19:56;;;;;;;10.40;9.17;;;9.00;99.90;;;;;;5113167;27;20311;-53
2021/03/05 00:22:22;;;;;;;13.00;10.93;;;8.80;99.90;;;;;;5111874;27;20179;-53
2021/03/05 00:24:48;;;;;;;13.43;10.00;;;8.80;99.90;;;;;;5113758;27;20179;-53
2021/03/05 00:27:13;;;;;;;14.13;12.00;;;8.60;99.90;;;;;;5117105;27;20199;-52
2021/03/05 00:29:39;;;;;;;14.27;12.73;;;8.50;99.90;;;;;;5113859;27;20179;-52
2021/03/05 00:32:05;;;;;;;16.67;13.10;;;8.40;99.90;;;;;;5113595;27;20167;-53
2021/03/05 00:34:31;;;;;;;17.10;13.48;;;8.00;99.90;;;;;;5113326;27;20175;-53
2021/03/05 00:36:56;;;;;;;18.60;14.33;;;7.70;99.90;;;;;;5113063;27;20214;-53
2021/03/05 00:39:22;;;;;;;17.53;14.47;;;7.80;99.90;;;;;;5113442;27;20183;-52
2021/03/05 00:41:47;;;;;;;20.13;15.53;;;7.80;99.90;;;;;;5113452;27;20198;-52
2021/03/05 00:44:13;;;;;;;19.13;15.40;;;7.80;99.90;;;;;;5114088;27;20443;-53
2021/03/05 00:46:39;;;;;;;21.23;15.83;;;7.90;99.90;;;;;;5113271;27;20667;-52
2021/03/05 00:49:04;;;;;;;20.53;15.67;;;7.50;99.90;;;;;;5113008;27;20179;-53
2021/03/05 00:51:30;;;;;;;18.53;15.10;;;7.80;99.90;;;;;;5113052;27;20707;-52
2021/03/05 00:53:56;;;;;;;20.77;15.93;;;7.60;99.90;;;;;;5113542;27;20575;-53
2021/03/05 00:56:21;;;;;;;19.57;14.37;;;7.70;99.90;;;;;;5113174;27;20759;-52
2021/03/05 00:58:47;;;;;;;20.93;16.10;;;7.50;99.90;;;;;;5112793;27;20210;-52
2021/03/05 01:01:12;;;;;;;16.97;14.37;;;7.60;99.90;;;;;;5113634;27;20178;-52
2021/03/05 01:03:38;;;;;;;20.60;16.10;;;7.50;99.90;;;;;;5112662;27;20206;-53
2021/03/05 01:06:04;;;;;;;20.73;15.87;;;7.40;99.90;;;;;;5113132;27;20249;-53
2021/03/05 01:08:30;;;;;;;23.40;17.45;;;7.30;99.90;;;;;;5131556;27;20193;-53
2021/03/05 01:10:56;;;;;;;23.07;16.27;;;6.70;99.90;;;;;;5113058;27;20187;-53
2021/03/05 01:13:22;;;;;;;24.83;18.00;;;6.90;99.90;;;;;;5131250;27;20187;-53
2021/03/05 01:15:47;;;;;;;23.93;18.13;;;6.60;99.90;;;;;;5112838;27;20973;-52
2021/03/05 01:18:13;;;;;;;23.33;16.70;;;6.50;99.90;;;;;;5113178;27;20178;-53
2021/03/05 01:20:39;;;;;;;26.13;19.48;;;6.60;99.90;;;;;;5112874;27;20193;-52
2021/03/05 01:23:05;;;;;;;26.13;18.75;;;6.80;99.90;;;;;;5112612;27;20262;-52
2021/03/05 01:25:32;;;;;;;27.67;18.80;;;6.60;99.90;;;;;;5112900;27;20760;-52
2021/03/05 01:27:59;;;;;;;27.90;18.10;;;6.80;99.90;;;;;;5112370;27;20202;-53
2021/03/05 01:30:25;;;;;;;27.00;18.88;;;6.90;99.90;;;;;;5112752;27;20266;-52
2021/03/05 01:32:51;;;;;;;29.92;19.83;;;6.80;99.90;;;;;;5112162;27;20364;-52
2021/03/05 01:35:22;;;;;;;25.23;18.20;;;6.80;99.90;;;;;;5116194;27;20309;-53
2021/03/05 01:37:48;;;;;;;22.88;16.60;;;6.70;99.90;;;;;;5130986;27;20955;-52
2021/03/05 01:40:18;;;;;;;26.08;17.33;;;6.50;99.90;;;;;;5112285;27;20658;-52
2021/03/05 01:42:43;;;;;;;28.10;19.90;;;6.50;99.90;;;;;;5112448;27;20193;-52
2021/03/05 01:45:17;;;;;;;29.83;16.97;;;6.30;99.90;;;;;;5112293;27;20556;-53
2021/03/05 01:47:47;;;;;;;27.85;18.77;;;6.40;99.90;;;;;;5112187;27;20210;-52
2021/03/05 01:50:19;;;;;;;27.90;18.13;;;6.20;99.90;;;;;;5112387;27;20200;-52
2021/03/05 01:52:51;;;;;;;28.55;18.48;;;6.10;99.90;;;;;;5128348;27;20185;-52
2021/03/05 01:55:17;;;;;;;28.90;16.25;;;6.30;99.90;;;;;;5112413;27;20230;-52
2021/03/05 01:57:43;;;;;;;23.85;16.60;;;6.30;99.90;;;;;;5111843;27;20201;-53
2021/03/05 02:00:11;;;;;;;26.25;17.65;;;6.20;99.90;;;;;;5111866;27;20269;-52
2021/03/05 02:02:37;;;;;;;28.98;18.23;;;6.00;99.90;;;;;;5129487;27;20193;-52
2021/03/05 02:05:03;;;;;;;30.97;19.17;;;6.00;99.90;;;;;;5112302;27;20184;-53
2021/03/05 02:07:29;;;;;;;27.52;18.55;;;6.00;99.90;;;;;;5111960;27;20214;-52
2021/03/05 02:09:54;;;;;;;29.77;18.13;;;6.10;99.90;;;;;;5112693;27;20273;-52
2021/03/05 02:12:20;;;;;;;29.17;19.00;;;5.80;99.90;;;;;;5112136;28;20185;-52
2021/03/05 02:14:46;;;;;;;34.10;20.37;;;6.00;99.90;;;;;;5111809;27;20220;-53
2021/03/05 02:17:40;;;;;;;27.83;18.80;;;6.00;99.90;;;;;;5111202;27;20205;-51
2021/03/05 02:20:30;;;;;;;31.55;20.83;;;5.90;99.90;;;;;;5111932;27;20194;-53
2021/03/05 02:22:59;;;;;;;27.95;17.92;;;5.90;99.90;;;;;;5109265;27;20508;-52
2021/03/05 02:25:40;;;;;;;30.15;20.23;;;5.80;99.90;;;;;;5112512;27;20277;-52
2021/03/05 02:28:20;;;;;;;32.85;20.98;;;6.10;99.90;;;;;;5111644;28;20254;-52
2021/03/05 02:31:22;;;;;;;25.63;17.38;;;5.70;99.90;;;;;;5111845;28;20189;-52
2021/03/05 02:33:56;;;;;;;26.45;18.02;;;5.70;99.90;;;;;;5059832;28;20197;-52
2021/03/05 02:36:27;;;;;;;27.33;17.80;;;5.90;99.90;;;;;;5111268;28;20216;-52
2021/03/05 02:39:01;;;;;;;23.08;16.35;;;5.90;99.90;;;;;;5111337;28;20265;-53
2021/03/05 02:41:29;;;;;;;24.92;17.65;;;5.80;99.90;;;;;;5111392;28;20590;-52
2021/03/05 02:43:56;;;;;;;26.15;17.60;;;5.80;99.90;;;;;;5117420;28;20478;-52
2021/03/05 02:46:22;;;;;;;28.42;18.20;;;5.80;99.90;;;;;;5111759;28;20204;-52
2021/03/05 02:48:50;;;;;;;26.98;17.60;;;5.80;99.90;;;;;;5111271;28;20669;-53
2021/03/05 02:51:18;;;;;;;28.55;17.55;;;5.90;99.90;;;;;;5111700;28;20185;-53
2021/03/05 02:53:46;;;;;;;25.30;17.85;;;6.00;99.90;;;;;;5112016;28;20177;-53
2021/03/05 02:56:18;;;;;;;26.42;17.13;;;5.90;99.90;;;;;;5129663;28;20213;-52
2021/03/05 02:58:47;;;;;;;26.90;17.02;;;5.90;99.90;;;;;;5110613;28;20234;-53
2021/03/05 03:01:14;;;;;;;26.58;17.73;;;6.00;99.90;;;;;;5116833;28;20174;-52
2021/03/05 03:03:41;;;;;;;24.70;16.42;;;5.80;99.90;;;;;;5111485;28;20181;-52
2021/03/05 03:06:12;;;;;;;25.55;16.65;;;6.00;99.90;;;;;;5111404;28;20283;-52
2021/03/05 03:08:39;;;;;;;25.73;17.75;;;5.80;99.90;;;;;;5111355;28;20200;-52
2021/03/05 03:11:06;;;;;;;25.98;17.45;;;5.90;99.90;;;;;;5111329;28;20218;-52
2021/03/05 03:13:35;;;;;;;23.27;16.00;;;5.80;99.90;;;;;;5111170;28;20242;-53
2021/03/05 03:16:02;;;;;;;26.27;15.63;;;6.00;99.90;;;;;;5110861;27;20264;-52
2021/03/05 03:18:28;;;;;;;23.48;16.23;;;5.80;99.90;;;;;;5114122;28;20203;-53
2021/03/05 03:20:57;;;;;;;23.95;16.27;;;6.10;99.90;;;;;;5110979;28;20185;-52
2021/03/05 03:23:23;;;;;;;25.17;17.13;;;6.10;99.90;;;;;;5111059;28;20182;-52
2021/03/05 03:25:50;;;;;;;22.43;14.90;;;6.20;99.90;;;;;;5111490;28;20194;-52
2021/03/05 03:28:16;;;;;;;25.42;15.85;;;6.20;99.90;;;;;;5110799;28;20540;-53
2021/03/05 03:30:42;;;;;;;23.87;17.80;;;6.00;99.90;;;;;;5111106;28;20222;-52
2021/03/05 03:33:08;;;;;;;25.42;16.63;;;5.80;99.90;;;;;;5111875;27;20186;-52
2021/03/05 03:35:34;;;;;;;22.27;16.92;;;5.70;99.90;;;;;;5121674;27;20213;-53
2021/03/05 03:38:01;;;;;;;27.10;17.50;;;5.60;99.90;;;;;;5114328;27;20258;-53
2021/03/05 03:40:27;;;;;;;24.00;17.98;;;5.90;99.90;;;;;;5114513;27;20592;-52
2021/03/05 03:42:52;;;;;;;20.87;15.50;;;5.80;99.90;;;;;;5113778;27;20190;-52
2021/03/05 03:45:22;;;;;;;23.33;16.13;;;6.00;99.90;;;;;;5114678;27;20448;-53
2021/03/05 03:47:49;;;;;;;23.33;16.30;;;6.20;99.90;;;;;;5114300;27;20205;-52
2021/03/05 03:50:43;;;;;;;22.42;15.85;;;5.80;99.90;;;;;;5114776;27;20601;-52
2021/03/05 03:53:14;;;;;;;22.42;16.38;;;5.70;99.90;;;;;;5113905;27;20566;-52
2021/03/05 03:55:40;;;;;;;20.88;15.00;;;5.80;99.90;;;;;;5114148;27;20198;-52
2021/03/05 03:58:07;;;;;;;21.20;14.37;;;6.00;99.90;;;;;;5113516;27;20217;-52
2021/03/05 04:00:35;;;;;;;22.88;15.73;;;6.00;99.90;;;;;;5113956;27;20435;-53
2021/03/05 04:03:04;;;;;;;22.00;16.02;;;5.80;99.90;;;;;;5109768;28;20178;-52
2021/03/05 04:05:50;;;;;;;28.15;18.00;;;5.60;99.90;;;;;;5114374;27;20196;-53
2021/03/05 04:08:18;;;;;;;18.23;13.90;;;5.70;99.90;;;;;;5119363;27;20726;-52
2021/03/05 04:10:44;;;;;;;19.35;13.98;;;5.90;99.90;;;;;;5116372;27;20714;-52
2021/03/05 04:13:10;;;;;;;17.95;13.40;;;5.70;99.90;;;;;;5114031;27;20182;-53
2021/03/05 04:15:37;;;;;;;17.30;12.27;;;5.70;99.90;;;;;;5113685;27;20201;-52
2021/03/05 04:18:03;;;;;;;20.27;13.50;;;5.80;99.90;;;;;;5113861;27;20457;-52
2021/03/05 04:20:30;;;;;;;17.50;13.25;;;5.70;99.90;;;;;;5113954;27;20239;-52
2021/03/05 04:22:57;;;;;;;15.50;12.43;;;5.80;99.90;;;;;;5102675;27;20178;-53
2021/03/05 04:25:22;;;;;;;16.55;13.45;;;5.90;99.90;;;;;;5124694;27;20207;-52
2021/03/05 04:27:48;;;;;;;14.87;12.20;;;6.10;99.90;;;;;;5111857;27;20203;-52
2021/03/05 04:30:15;;;;;;;15.60;11.80;;;5.80;99.90;;;;;;5112285;27;20197;-53
2021/03/05 04:32:42;;;;;;;15.57;11.85;;;6.00;99.90;;;;;;5113461;27;20284;-52
2021/03/05 04:35:12;;;;;;;14.13;11.73;;;5.80;99.90;;;;;;5113247;27;20250;-52
2021/03/05 04:37:39;;;;;;;15.82;11.82;;;5.90;99.90;;;;;;5113249;27;20206;-52
2021/03/05 04:40:06;;;;;;;16.83;11.73;;;5.60;99.90;;;;;;5113451;27;20660;-52
2021/03/05 04:42:32;;;;;;;14.68;12.18;;;5.90;99.90;;;;;;5114436;27;20183;-52
2021/03/05 04:44:58;;;;;;;15.87;11.83;;;5.70;99.90;;;;;;5113435;27;20249;-52
2021/03/05 04:47:23;;;;;;;16.20;12.17;;;5.40;99.90;;;;;;5113195;27;20210;-53
2021/03/05 04:49:49;;;;;;;16.43;11.87;;;5.60;99.90;;;;;;5113079;27;20517;-52
2021/03/05 04:52:15;;;;;;;16.50;11.90;;;5.60;99.90;;;;;;5113315;27;20186;-53
2021/03/05 04:54:40;;;;;;;17.80;12.03;;;5.60;99.90;;;;;;5113264;27;20538;-52
2021/03/05 04:57:06;;;;;;;17.27;12.13;;;5.60;99.90;;;;;;5113138;27;20221;-52
2021/03/05 04:59:31;;;;;;;15.20;11.63;;;5.60;99.90;;;;;;5120694;27;20181;-52
2021/03/05 05:01:57;;;;;;;15.03;11.20;;;5.50;99.90;;;;;;5113803;27;20728;-52
2021/03/05 05:04:22;;;;;;;16.33;11.27;;;5.40;99.90;;;;;;5112599;27;20173;-53
2021/03/05 05:06:51;;;;;;;17.67;12.37;;;5.50;99.90;;;;;;5113305;27;20199;-52
2021/03/05 05:09:18;;;;;;;15.75;12.52;;;5.70;99.90;;;;;;5113328;27;20184;-52
2021/03/05 05:11:44;;;;;;;16.10;12.02;;;5.40;99.90;;;;;;5113029;27;20181;-52
2021/03/05 05:14:10;;;;;;;17.57;12.43;;;5.40;99.90;;;;;;5131402;27;20204;-52
2021/03/05 05:16:35;;;;;;;15.40;11.37;;;5.60;99.90;;;;;;5113061;27;20209;-52
2021/03/05 05:19:01;;;;;;;16.83;11.80;;;5.60;99.90;;;;;;5112821;27;20178;-52
2021/03/05 05:21:27;;;;;;;14.97;11.00;;;5.60;99.90;;;;;;5112523;27;20176;-52
2021/03/05 05:23:52;;;;;;;14.47;10.73;;;5.60;99.90;;;;;;5112796;27;20188;-52
2021/03/05 05:26:18;;;;;;;14.00;11.90;;;5.80;99.90;;;;;;5112543;27;20220;-52
2021/03/05 05:28:43;;;;;;;15.53;10.87;;;5.80;99.90;;;;;;5112859;27;20189;-52
2021/03/05 05:31:09;;;;;;;15.03;10.33;;;5.90;99.90;;;;;;5112611;27;20215;-52
2021/03/05 05:33:35;;;;;;;13.93;10.67;;;5.80;99.90;;;;;;5119868;27;20189;-52
2021/03/05 05:36:00;;;;;;;15.43;11.13;;;5.50;99.90;;;;;;5111765;27;20634;-52
2021/03/05 05:38:26;;;;;;;13.87;10.63;;;5.80;99.90;;;;;;5112858;27;20187;-52
2021/03/05 05:40:52;;;;;;;12.33;9.87;;;5.70;99.90;;;;;;5112225;27;20182;-53
2021/03/05 05:43:17;;;;;;;16.50;11.27;;;5.70;99.90;;;;;;5109176;27;20182;-52
2021/03/05 05:45:46;;;;;;;15.70;11.50;;;5.80;99.90;;;;;;5123614;27;20426;-52
2021/03/05 05:48:13;;;;;;;14.00;10.38;;;5.50;99.90;;;;;;5110118;27;20197;-53
2021/03/05 05:50:41;;;;;;;12.25;9.80;;;5.70;99.90;;;;;;5113720;27;20182;-52
2021/03/05 05:53:08;;;;;;;14.93;11.00;;;5.40;99.90;;;;;;5111636;27;20559;-52
2021/03/05 05:55:34;;;;;;;13.40;10.60;;;5.60;99.90;;;;;;5110579;27;20205;-52
2021/03/05 05:58:00;;;;;;;14.55;10.80;;;5.50;99.90;;;;;;5127184;27;20197;-52
2021/03/05 06:00:26;;;;;;;13.35;10.35;;;5.50;99.90;;;;;;5109367;27;20177;-52
2021/03/05 06:02:54;;;;;;;16.42;10.45;;;5.50;99.90;;;;;;5107908;28;20174;-53
2021/03/05 06:05:20;;;;;;;15.35;11.15;;;5.60;99.90;;;;;;5108048;27;20190;-51
2021/03/05 06:07:45;;;;;;;13.20;10.00;;;5.50;99.90;;;;;;5128587;27;20208;-53
2021/03/05 06:10:12;;;;;;;14.47;10.20;;;5.60;99.90;;;;;;5110111;27;20720;-52
2021/03/05 06:12:39;;;;;;;18.15;11.20;;;5.60;99.90;;;;;;5108015;27;20804;-53
2021/03/05 06:15:06;;;;;;;18.27;10.50;;;5.80;99.90;;;;;;5110365;27;20200;-53
2021/03/05 06:17:44;;;;;;;15.23;11.20;;;5.50;99.90;;;;;;5107934;27;20311;-53
2021/03/05 06:20:12;;;;;;;15.27;11.32;;;5.80;99.90;;;;;;5106934;27;20525;-53
2021/03/05 06:22:38;;;;;;;14.65;9.95;;;5.30;99.90;;;;;;5108188;28;20372;-54
2021/03/05 06:25:06;;;;;;;15.00;10.40;;;5.10;99.90;;;;;;5132057;27;20180;-54
2021/03/05 06:27:31;;;;;;;14.98;11.68;;;5.40;99.90;;;;;;5111923;27;20444;-54
2021/03/05 06:29:57;;;;;;;16.90;11.40;;;5.30;99.90;;;;;;5110973;28;20319;-53
2021/03/05 06:32:37;;;;;;;14.10;10.37;;;5.50;99.90;;;;;;5109706;28;20222;-53
2021/03/05 06:35:05;;;;;;;19.33;12.75;;;5.30;99.90;;;;;;5108004;28;20182;-52
2021/03/05 06:37:45;;;;;;;15.77;11.60;;;5.70;99.90;;;;;;5109097;28;20241;-53
2021/03/05 06:40:12;;;;;;;13.68;11.07;;;5.50;99.90;;;;;;5109711;28;20185;-52
2021/03/05 06:42:51;;;;;;;14.68;11.35;;;5.80;99.90;;;;;;5111585;28;20245;-53
2021/03/05 06:45:18;;;;;;;17.08;10.75;;;5.80;99.90;;;;;;5107046;28;20184;-53
2021/03/05 06:48:03;;;;;;;15.52;11.88;;;5.80;99.90;;;;;;5107722;28;20556;-54
2021/03/05 06:50:34;;;;;;;16.05;10.43;;;5.70;99.90;;;;;;5108954;28;20196;-52
2021/03/05 06:52:59;;;;;;;12.95;9.95;;;6.00;99.90;;;;;;5110123;28;20219;-52
2021/03/05 06:55:25;;;;;;;18.77;11.87;;;6.00;99.90;;;;;;5120936;28;20198;-57
2021/03/05 06:57:54;;;;;;;12.97;8.87;;;6.00;99.90;;;;;;5106331;28;20197;-53
2021/03/05 07:00:22;;;;;;;13.88;9.95;;;6.80;99.90;;;;;;5103213;28;20176;-52
2021/03/05 07:02:49;;;;;;;15.30;10.05;;;7.00;99.90;;;;;;5105019;28;20174;-51
2021/03/05 07:05:16;;;;;;;14.55;10.23;;;6.40;99.90;;;;;;5103432;28;20191;-50
2021/03/05 07:07:49;;;;;;;15.30;10.52;;;6.30;99.90;;;;;;5106070;28;20569;-50
2021/03/05 07:10:15;;;;;;;11.52;8.98;;;6.30;99.90;;;;;;5123456;27;20240;-51
2021/03/05 07:13:07;;;;;;;13.88;10.13;;;6.30;99.90;;;;;;5110731;27;20655;-50
2021/03/05 07:15:53;;;;;;;15.38;11.27;;;5.80;99.90;;;;;;5108067;27;20324;-50
2021/03/05 07:18:18;;;;;;;16.63;11.38;;;6.20;99.90;;;;;;5099626;27;20180;-50
2021/03/05 07:20:44;;;;;;;14.70;9.73;;;6.30;99.90;;;;;;5107867;27;20281;-51
2021/03/05 07:23:10;;;;;;;14.83;9.90;;;5.80;99.90;;;;;;5112110;27;20189;-51
2021/03/05 07:25:36;;;;;;;16.80;10.27;;;5.70;99.90;;;;;;5106542;27;20200;-51
2021/03/05 07:28:02;;;;;;;16.67;10.87;;;5.90;99.90;;;;;;5108783;27;20254;-51
2021/03/05 07:30:29;;;;;;;15.15;9.85;;;5.80;99.90;;;;;;5124206;27;20439;-54
2021/03/05 07:32:59;;;;;;;15.05;10.70;;;5.90;99.90;;;;;;5110593;27;20178;-51
2021/03/05 07:35:35;;;;;;;15.25;11.25;;;6.10;99.90;;;;;;5123432;27;20568;-52
2021/03/05 07:38:05;;;;;;;16.50;11.68;;;5.90;99.90;;;;;;5108121;27;20844;-51
2021/03/05 07:40:31;;;;;;;17.73;11.23;;;5.90;99.90;;;;;;5107641;27;20181;-51
2021/03/05 07:42:59;;;;;;;16.10;10.60;;;5.60;99.90;;;;;;5107490;27;20225;-51
2021/03/05 07:45:25;;;;;;;15.98;10.70;;;5.80;99.90;;;;;;5113132;27;20182;-50
2021/03/05 07:47:54;;;;;;;13.27;9.25;;;5.90;99.90;;;;;;5113053;27;20303;-51
2021/03/05 07:50:23;;;;;;;12.98;10.30;;;6.10;99.90;;;;;;5113821;27;20193;-51
2021/03/05 07:52:49;;;;;;;15.15;10.38;;;6.00;99.90;;;;;;5111486;27;20200;-50
2021/03/05 07:55:15;;;;;;;15.85;10.95;;;5.90;99.90;;;;;;5113502;27;20213;-51
2021/03/05 07:57:46;;;;;;;16.43;11.33;;;5.70;99.90;;;;;;5110669;27;20228;-52
2021/03/05 08:00:16;;;;;;;15.57;11.18;;;6.00;99.90;;;;;;5106434;27;20436;-50
2021/03/05 08:02:55;;;;;;;14.48;10.27;;;6.00;99.90;;;;;;5108179;27;20178;-50
2021/03/05 08:05:37;;;;;;;14.52;10.05;;;5.90;99.90;;;;;;5105947;27;20645;-51
2021/03/05 08:08:08;;;;;;;14.60;10.30;;;6.20;99.90;;;;;;5113263;27;20200;-52
2021/03/05 08:10:35;;;;;;;13.23;10.80;;;5.90;99.90;;;;;;5112049;27;20268;-51
2021/03/05 08:13:01;;;;;;;17.05;10.30;;;6.00;99.90;;;;;;5113884;27;20210;-51
2021/03/05 08:15:27;;;;;;;14.77;11.15;;;6.30;99.90;;;;;;5112215;27;20685;-51
2021/03/05 08:17:54;;;;;;;15.87;10.90;;;6.10;99.90;;;;;;5112772;27;20195;-51
2021/03/05 08:20:20;;;;;;;16.40;10.88;;;6.00;99.90;;;;;;5112040;27;20928;-51
2021/03/05 08:23:03;;;;;;;15.50;10.20;;;6.20;99.90;;;;;;5113066;27;20189;-51
2021/03/05 08:25:29;;;;;;;15.60;10.00;;;5.90;99.90;;;;;;5110989;27;20186;-51
2021/03/05 08:27:56;;;;;;;13.63;9.93;;;6.00;99.90;;;;;;5111197;27;20562;-52
2021/03/05 08:30:34;;;;;;;15.80;10.18;;;6.00;99.90;;;;;;5112822;27;20243;-51
2021/03/05 08:33:06;;;;;;;13.65;10.23;;;6.10;99.90;;;;;;5110295;27;20190;-52
2021/03/05 08:35:31;;;;;;;15.20;10.57;;;6.30;99.90;;;;;;5111305;27;20210;-52
2021/03/05 08:38:10;;;;;;;15.70;10.60;;;6.20;99.90;;;;;;5112174;27;20211;-52
2021/03/05 08:40:37;;;;;;;12.88;9.32;;;6.50;99.90;;;;;;5110958;27;20251;-51
2021/03/05 08:43:09;;;;;;;16.50;10.05;;;6.40;99.90;;;;;;5104298;27;20174;-51
2021/03/05 08:45:41;;;;;;;14.23;9.40;;;6.70;99.90;;;;;;5111274;27;20661;-51
2021/03/05 08:48:07;;;;;;;13.15;9.02;;;6.30;99.90;;;;;;5112054;27;20205;-51
2021/03/05 08:50:37;;;;;;;14.18;9.85;;;6.60;99.90;;;;;;5112459;27;20555;-51
2021/03/05 08:53:03;;;;;;;15.43;9.68;;;6.60;99.90;;;;;;5106674;27;20636;-53
2021/03/05 08:55:34;;;;;;;14.20;10.07;;;6.40;99.90;;;;;;5127333;27;20637;-52
2021/03/05 08:58:00;;;;;;;14.48;10.10;;;6.60;99.90;;;;;;5109731;27;20201;-52
2021/03/05 09:00:30;;;;;;;12.77;8.93;;;6.40;99.90;;;;;;5111546;27;20179;-51
2021/03/05 09:03:22;;;;;;;14.18;8.90;;;6.60;99.90;;;;;;5109113;27;20259;-52
2021/03/05 09:05:50;;;;;;;16.15;10.95;;;6.40;99.90;;;;;;5103668;27;20202;-52
2021/03/05 09:08:20;;;;;;;12.35;8.40;;;6.70;99.90;;;;;;5109550;27;20506;-51
2021/03/05 09:10:52;;;;;;;13.43;9.60;;;6.50;99.90;;;;;;5112545;27;20483;-51
2021/03/05 09:13:23;;;;;;;13.23;8.55;;;6.40;99.90;;;;;;5108432;27;20285;-51
2021/03/05 09:15:51;;;;;;;11.98;8.75;;;6.40;99.90;;;;;;5112847;27;20198;-50
2021/03/05 09:18:19;;;;;;;12.27;8.45;;;6.60;99.90;;;;;;5110716;27;20202;-52
2021/03/05 09:20:48;;;;;;;12.88;8.98;;;6.60;99.90;;;;;;5128872;27;20192;-52
2021/03/05 09:23:15;;;;;;;12.98;9.80;;;6.50;99.90;;;;;;5109890;27;20307;-51
2021/03/05 09:26:08;;;;;;;11.10;8.75;;;6.60;99.90;;;;;;5130465;27;20205;-52
2021/03/05 09:28:40;;;;;;;16.33;8.85;;;6.50;99.90;;;;;;5108075;27;20199;-52
2021/03/05 09:31:08;;;;;;;12.90;9.02;;;6.70;99.90;;;;;;5110367;27;20202;-52
2021/03/05 09:33:36;;;;;;;12.48;8.57;;;6.60;99.90;;;;;;5112395;27;20193;-50
2021/03/05 09:36:04;;;;;;;15.75;8.90;;;6.40;99.90;;;;;;5129069;27;20197;-52
2021/03/05 09:38:31;;;;;;;11.82;9.00;;;6.30;99.90;;;;;;5111678;27;20184;-52
2021/03/05 09:41:17;;;;;;;12.77;8.30;;;7.00;99.90;;;;;;5112719;27;20567;-52
2021/03/05 09:43:45;;;;;;;13.05;7.82;;;6.30;99.90;;;;;;5111056;27;20198;-52
2021/03/05 09:46:25;;;;;;;12.63;8.20;;;6.70;99.90;;;;;;5110922;27;20209;-52
2021/03/05 09:48:52;;;;;;;12.10;8.48;;;6.90;99.90;;;;;;5128001;27;20543;-53
2021/03/05 09:51:19;;;;;;;11.75;7.80;;;7.00;99.90;;;;;;5109271;27;20186;-49
2021/03/05 09:53:55;;;;;;;13.80;8.75;;;6.90;99.90;;;;;;5108245;27;20231;-52
2021/03/05 09:56:26;;;;;;;10.82;7.72;;;6.90;99.90;;;;;;5098035;27;20214;-52
2021/03/05 09:58:52;;;;;;;12.43;8.30;;;6.80;99.90;;;;;;5105058;27;20197;-51
2021/03/05 10:01:17;;;;;;;10.13;7.63;;;6.60;99.90;;;;;;5106392;28;20637;-51
2021/03/05 10:03:43;;;;;;;15.70;8.50;;;6.50;99.90;;;;;;5106751;27;20290;-51
2021/03/05 10:06:18;;;;;;;14.37;9.30;;;6.60;99.90;;;;;;5120919;27;20258;-52
2021/03/05 10:08:44;;;;;;;12.98;9.25;;;6.90;99.90;;;;;;5109772;27;20174;-51
2021/03/05 10:11:12;;;;;;;11.73;7.90;;;6.90;99.90;;;;;;5110253;27;20183;-51
2021/03/05 10:13:41;;;;;;;11.82;8.10;;;6.60;99.90;;;;;;5111110;27;20471;-49
2021/03/05 10:16:22;;;;;;;11.65;8.02;;;6.80;99.90;;;;;;5111690;28;20244;-52
2021/03/05 10:18:51;;;;;;;9.95;7.40;;;6.50;99.90;;;;;;5110882;27;20593;-51
2021/03/05 10:21:19;;;;;;;13.30;8.32;;;6.50;99.90;;;;;;5110795;27;20175;-52
2021/03/05 10:23:46;;;;;;;10.98;7.30;;;6.60;99.90;;;;;;5101962;27;20167;-52
2021/03/05 10:26:17;;;;;;;12.32;7.75;;;7.00;99.90;;;;;;5120269;27;20214;-52
2021/03/05 10:28:44;;;;;;;11.95;8.38;;;6.90;99.90;;;;;;5101248;27;20182;-51
2021/03/05 10:31:09;;;;;;;12.02;7.38;;;6.80;99.90;;;;;;5107980;28;20202;-51
2021/03/05 10:33:41;;;;;;;12.07;8.90;;;7.00;99.90;;;;;;5109064;28;20704;-51
2021/03/05 10:36:08;;;;;;;14.43;8.88;;;7.10;99.90;;;;;;5108847;27;20195;-52
2021/03/05 10:38:36;;;;;;;11.27;7.50;;;7.20;99.90;;;;;;5108804;27;20551;-51
2021/03/05 10:41:02;;;;;;;14.73;9.18;;;7.60;99.90;;;;;;5126051;28;20183;-51
2021/03/05 10:43:28;;;;;;;15.05;9.30;;;7.40;99.90;;;;;;5128749;27;20314;-51
2021/03/05 10:45:54;;;;;;;10.33;7.50;;;7.30;99.90;;;;;;5124214;27;20253;-52
2021/03/05 10:48:20;;;;;;;11.43;8.50;;;7.40;99.90;;;;;;5112771;27;20185;-51
2021/03/05 10:50:45;;;;;;;13.53;7.80;;;7.70;99.90;;;;;;5108936;27;20439;-52
2021/03/05 10:53:11;;;;;;;12.53;8.13;;;8.10;99.90;;;;;;5127160;27;20561;-51
2021/03/05 10:55:37;;;;;;;13.87;8.50;;;7.70;99.90;;;;;;5116803;27;20195;-51
2021/03/05 10:58:03;;;;;;;13.90;9.13;;;7.80;99.90;;;;;;5113178;27;20210;-51
2021/03/05 11:00:29;;;;;;;13.80;7.25;;;7.50;99.90;;;;;;5110316;27;20182;-50
2021/03/05 11:02:55;;;;;;;12.82;8.45;;;7.70;99.80;;;;;;5113388;27;20187;-51
2021/03/05 11:05:22;;;;;;;11.82;8.80;;;7.10;99.90;;;;;;5125349;27;20278;-51
2021/03/05 11:07:48;;;;;;;12.82;8.98;;;7.30;99.90;;;;;;5108086;27;20697;-52
2021/03/05 11:10:14;;;;;;;14.90;8.70;;;7.30;99.90;;;;;;5111218;27;20191;-52
2021/03/05 11:12:40;;;;;;;11.80;8.40;;;7.20;99.90;;;;;;5112023;27;20467;-51
2021/03/05 11:15:07;;;;;;;10.90;7.70;;;7.50;99.90;;;;;;5113370;27;20194;-51
2021/03/05 11:17:33;;;;;;;12.80;8.82;;;7.30;99.90;;;;;;5109951;27;20191;-51
2021/03/05 11:19:59;;;;;;;10.40;8.15;;;7.20;99.90;;;;;;5112871;27;20179;-52
2021/03/05 11:22:24;;;;;;;11.53;8.57;;;7.50;99.90;;;;;;5109746;27;20196;-52
2021/03/05 11:24:50;;;;;;;13.60;9.13;;;7.60;99.40;;;;;;5108644;27;20516;-50
2021/03/05 11:27:16;;;;;;;10.50;8.03;;;7.50;99.20;;;;;;5129583;27;20202;-50
2021/03/05 11:29:42;;;;;;;12.77;8.23;;;7.20;99.40;;;;;;5114063;27;20205;-51
2021/03/05 11:32:08;;;;;;;15.88;8.93;;;7.30;99.60;;;;;;5109716;27;20178;-53
2021/03/05 11:34:34;;;;;;;17.10;11.40;;;6.80;99.90;;;;;;5114158;27;20186;-52
2021/03/05 11:37:00;;;;;;;13.40;9.00;;;6.90;99.90;;;;;;5112032;27;20262;-51
2021/03/05 11:39:26;;;;;;;12.37;8.70;;;6.70;99.90;;;;;;5103278;27;20222;-53
2021/03/05 11:41:55;;;;;;;15.70;9.73;;;6.60;99.90;;;;;;5111852;27;21005;-50
2021/03/05 11:44:21;;;;;;;11.13;8.05;;;7.00;99.90;;;;;;5108837;27;20308;-51
2021/03/05 11:46:50;;;;;;;12.70;8.90;;;7.10;99.90;;;;;;5115783;27;20301;-53
2021/03/05 11:49:16;;;;;;;14.18;8.82;;;6.80;99.90;;;;;;5114344;27;20190;-53
2021/03/05 11:51:50;;;;;;;11.60;8.80;;;7.20;99.90;;;;;;5109017;27;20191;-51
2021/03/05 11:54:16;;;;;;;12.55;8.30;;;7.30;99.90;;;;;;5110779;27;20589;-51
2021/03/05 11:56:42;;;;;;;12.60;7.50;;;7.00;99.30;;;;;;5110162;27;20266;-51
2021/03/05 11:59:07;;;;;;;14.47;8.37;;;7.10;99.40;;;;;;5112878;27;20323;-50
2021/03/05 12:01:34;;;;;;;14.50;8.87;;;7.30;99.10;;;;;;5113251;27;20202;-52
2021/03/05 12:03:59;;;;;;;17.55;12.38;;;7.40;98.80;;;;;;5109377;27;20641;-52
2021/03/05 12:06:28;;;;;;;14.23;9.13;;;7.60;99.00;;;;;;5113569;27;20207;-52
2021/03/05 12:08:53;;;;;;;15.60;9.20;;;7.20;98.70;;;;;;5114749;27;20185;-52
2021/03/05 12:11:19;;;;;;;18.10;9.47;;;7.60;98.80;;;;;;5104315;27;20190;-52
2021/03/05 12:13:45;;;;;;;10.23;7.60;;;7.50;98.60;;;;;;5113509;27;20532;-52
2021/03/05 12:16:11;;;;;;;11.83;9.33;;;7.50;98.50;;;;;;5112979;27;20267;-52
2021/03/05 12:18:37;;;;;;;13.60;9.95;;;7.60;97.70;;;;;;5113474;27;20925;-52
2021/03/05 12:21:03;;;;;;;14.27;9.15;;;7.60;98.60;;;;;;5106933;27;20183;-52
2021/03/05 12:23:29;;;;;;;16.37;10.27;;;7.90;98.20;;;;;;5112057;27;20171;-52
2021/03/05 12:25:54;;;;;;;12.97;8.43;;;7.60;99.80;;;;;;5110068;27;20436;-52
2021/03/05 12:28:20;;;;;;;18.03;9.23;;;7.50;98.60;;;;;;5109480;27;20277;-51
2021/03/05 12:30:46;;;;;;;14.13;10.37;;;8.00;98.20;;;;;;5108193;27;20519;-52
2021/03/05 12:33:12;;;;;;;10.30;7.80;;;7.60;98.30;;;;;;5105928;27;20666;-52
2021/03/05 12:35:37;;;;;;;13.70;8.40;;;7.80;98.60;;;;;;5110850;27;20205;-52
2021/03/05 12:38:03;;;;;;;14.53;9.70;;;7.90;97.90;;;;;;5102706;27;20200;-52
2021/03/05 12:40:29;;;;;;;12.20;8.57;;;7.70;98.10;;;;;;5109118;27;20212;-51
2021/03/05 12:42:56;;;;;;;13.13;9.70;;;7.50;97.90;;;;;;5125146;27;20485;-52
2021/03/05 12:45:23;;;;;;;13.43;8.43;;;7.20;97.40;;;;;;5110121;27;20193;-52